sensor_id;sensor_type;location;lat;lon;timestamp;P1;durP1;ratioP1;P2;durP2;ratioP2
74530;SDS011;63010;55.668;37.878;2022-12-07T00:01:16;12.80;;;6.05;;
74530;SDS011;63010;55.668;37.878;2022-12-07T00:03:47;13.70;;;5.82;;
74530;SDS011;63010;55.668;37.878;2022-12-07T00:06:15;11.07;;;5.22;;
74530;SDS011;63010;55.668;37.878;2022-12-07T00:08:42;14.98;;;6.10;;
74530;SDS011;63010;55.668;37.878;2022-12-07T00:11:16;13.25;;;4.70;;
74530;SDS011;63010;55.668;37.878;2022-12-07T00:13:43;10.93;;;4.72;;
74530;SDS011;63010;55.668;37.878;2022-12-07T00:16:11;12.75;;;5.65;;
74530;SDS011;63010;55.668;37.878;2022-12-07T00:18:39;13.15;;;5.55;;
74530;SDS011;63010;55.668;37.878;2022-12-07T00:21:13;14.25;;;6.82;;
74530;SDS011;63010;55.668;37.878;2022-12-07T00:23:41;17.92;;;11.32;;
74530;SDS011;63010;55.668;37.878;2022-12-07T00:28:38;34.88;;;23.10;;
74530;SDS011;63010;55.668;37.878;2022-12-07T00:31:05;31.27;;;18.90;;
74530;SDS011;63010;55.668;37.878;2022-12-07T00:33:36;16.92;;;11.13;;
74530;SDS011;63010;55.668;37.878;2022-12-07T00:36:03;15.48;;;7.07;;
74530;SDS011;63010;55.668;37.878;2022-12-07T00:38:34;12.63;;;6.50;;
74530;SDS011;63010;55.668;37.878;2022-12-07T00:41:03;15.15;;;6.10;;
74530;SDS011;63010;55.668;37.878;2022-12-07T00:43:30;12.52;;;5.18;;
74530;SDS011;63010;55.668;37.878;2022-12-07T00:45:56;12.23;;;5.68;;
74530;SDS011;63010;55.668;37.878;2022-12-07T00:48:22;11.35;;;5.00;;
74530;SDS011;63010;55.668;37.878;2022-12-07T00:50:48;15.60;;;6.32;;
74530;SDS011;63010;55.668;37.878;2022-12-07T00:53:14;13.10;;;5.70;;
74530;SDS011;63010;55.668;37.878;2022-12-07T00:55:40;12.88;;;5.97;;
74530;SDS011;63010;55.668;37.878;2022-12-07T00:58:06;12.80;;;5.45;;
74530;SDS011;63010;55.668;37.878;2022-12-07T01:00:32;10.68;;;4.80;;
74530;SDS011;63010;55.668;37.878;2022-12-07T01:02:59;10.77;;;5.13;;
74530;SDS011;63010;55.668;37.878;2022-12-07T01:05:25;12.38;;;4.88;;
74530;SDS011;63010;55.668;37.878;2022-12-07T01:07:50;11.30;;;4.45;;
74530;SDS011;63010;55.668;37.878;2022-12-07T01:10:16;14.70;;;5.22;;
74530;SDS011;63010;55.668;37.878;2022-12-07T01:12:42;15.30;;;5.88;;
74530;SDS011;63010;55.668;37.878;2022-12-07T01:15:07;14.02;;;5.07;;
74530;SDS011;63010;55.668;37.878;2022-12-07T01:17:34;13.20;;;6.05;;
74530;SDS011;63010;55.668;37.878;2022-12-07T01:20:00;9.80;;;5.55;;
74530;SDS011;63010;55.668;37.878;2022-12-07T01:22:26;16.95;;;5.82;;
74530;SDS011;63010;55.668;37.878;2022-12-07T01:24:51;9.63;;;4.97;;
74530;SDS011;63010;55.668;37.878;2022-12-07T01:27:17;8.32;;;3.63;;
74530;SDS011;63010;55.668;37.878;2022-12-07T01:29:42;13.40;;;5.28;;
74530;SDS011;63010;55.668;37.878;2022-12-07T01:32:08;10.93;;;4.70;;
74530;SDS011;63010;55.668;37.878;2022-12-07T01:34:33;11.75;;;5.07;;
74530;SDS011;63010;55.668;37.878;2022-12-07T01:36:59;12.88;;;6.28;;
74530;SDS011;63010;55.668;37.878;2022-12-07T01:39:25;14.25;;;5.68;;
74530;SDS011;63010;55.668;37.878;2022-12-07T01:41:52;15.65;;;5.90;;
74530;SDS011;63010;55.668;37.878;2022-12-07T01:44:19;12.57;;;5.25;;
74530;SDS011;63010;55.668;37.878;2022-12-07T01:46:54;10.00;;;4.80;;
74530;SDS011;63010;55.668;37.878;2022-12-07T01:49:31;13.98;;;6.28;;
74530;SDS011;63010;55.668;37.878;2022-12-07T01:52:28;13.85;;;5.72;;
74530;SDS011;63010;55.668;37.878;2022-12-07T01:55:02;16.60;;;6.85;;
74530;SDS011;63010;55.668;37.878;2022-12-07T01:57:32;15.80;;;7.40;;
74530;SDS011;63010;55.668;37.878;2022-12-07T01:59:59;20.75;;;7.88;;
74530;SDS011;63010;55.668;37.878;2022-12-07T02:02:26;23.65;;;7.78;;
74530;SDS011;63010;55.668;37.878;2022-12-07T02:04:59;17.38;;;7.18;;
74530;SDS011;63010;55.668;37.878;2022-12-07T02:07:28;15.38;;;6.25;;
74530;SDS011;63010;55.668;37.878;2022-12-07T02:09:56;21.67;;;5.78;;
74530;SDS011;63010;55.668;37.878;2022-12-07T02:12:21;10.57;;;4.90;;
74530;SDS011;63010;55.668;37.878;2022-12-07T02:15:10;12.85;;;4.50;;
74530;SDS011;63010;55.668;37.878;2022-12-07T02:17:54;10.98;;;5.30;;
74530;SDS011;63010;55.668;37.878;2022-12-07T02:20:30;9.57;;;4.35;;
74530;SDS011;63010;55.668;37.878;2022-12-07T02:25:58;11.98;;;5.25;;
74530;SDS011;63010;55.668;37.878;2022-12-07T02:28:55;14.60;;;6.53;;
74530;SDS011;63010;55.668;37.878;2022-12-07T02:31:26;13.27;;;5.40;;
74530;SDS011;63010;55.668;37.878;2022-12-07T02:34:07;16.25;;;8.75;;
74530;SDS011;63010;55.668;37.878;2022-12-07T02:36:39;21.63;;;10.90;;
74530;SDS011;63010;55.668;37.878;2022-12-07T02:42:02;18.67;;;9.18;;
74530;SDS011;63010;55.668;37.878;2022-12-07T02:44:33;17.45;;;8.35;;
74530;SDS011;63010;55.668;37.878;2022-12-07T02:47:03;15.00;;;7.43;;
74530;SDS011;63010;55.668;37.878;2022-12-07T02:49:34;16.08;;;7.47;;
74530;SDS011;63010;55.668;37.878;2022-12-07T02:52:01;17.35;;;7.57;;
74530;SDS011;63010;55.668;37.878;2022-12-07T02:54:27;18.20;;;7.70;;
74530;SDS011;63010;55.668;37.878;2022-12-07T03:19:11;15.73;;;7.80;;
74530;SDS011;63010;55.668;37.878;2022-12-07T03:21:41;13.65;;;6.88;;
74530;SDS011;63010;55.668;37.878;2022-12-07T03:24:12;14.32;;;6.85;;
74530;SDS011;63010;55.668;37.878;2022-12-07T03:26:42;15.25;;;6.63;;
74530;SDS011;63010;55.668;37.878;2022-12-07T03:29:13;17.55;;;6.38;;
74530;SDS011;63010;55.668;37.878;2022-12-07T03:31:48;12.75;;;6.20;;
74530;SDS011;63010;55.668;37.878;2022-12-07T03:34:32;14.98;;;6.40;;
74530;SDS011;63010;55.668;37.878;2022-12-07T03:37:03;18.10;;;6.95;;
74530;SDS011;63010;55.668;37.878;2022-12-07T03:39:57;15.13;;;6.88;;
74530;SDS011;63010;55.668;37.878;2022-12-07T03:42:29;14.80;;;6.57;;
74530;SDS011;63010;55.668;37.878;2022-12-07T03:44:57;16.85;;;7.28;;
74530;SDS011;63010;55.668;37.878;2022-12-07T03:47:26;14.00;;;6.35;;
74530;SDS011;63010;55.668;37.878;2022-12-07T03:49:59;12.40;;;5.68;;
74530;SDS011;63010;55.668;37.878;2022-12-07T03:55:37;11.52;;;5.80;;
74530;SDS011;63010;55.668;37.878;2022-12-07T03:58:11;11.55;;;5.55;;
74530;SDS011;63010;55.668;37.878;2022-12-07T04:10:46;11.35;;;6.72;;
74530;SDS011;63010;55.668;37.878;2022-12-07T04:13:11;19.33;;;8.18;;
74530;SDS011;63010;55.668;37.878;2022-12-07T04:15:37;17.90;;;8.82;;
74530;SDS011;63010;55.668;37.878;2022-12-07T04:18:03;17.00;;;7.60;;
74530;SDS011;63010;55.668;37.878;2022-12-07T04:20:28;18.17;;;7.88;;
74530;SDS011;63010;55.668;37.878;2022-12-07T04:22:54;15.38;;;6.63;;
74530;SDS011;63010;55.668;37.878;2022-12-07T04:25:19;18.30;;;7.63;;
74530;SDS011;63010;55.668;37.878;2022-12-07T04:27:45;17.42;;;6.72;;
74530;SDS011;63010;55.668;37.878;2022-12-07T04:30:11;17.23;;;6.95;;
74530;SDS011;63010;55.668;37.878;2022-12-07T04:32:37;12.02;;;6.60;;
74530;SDS011;63010;55.668;37.878;2022-12-07T04:35:02;11.82;;;6.10;;
74530;SDS011;63010;55.668;37.878;2022-12-07T04:37:28;13.38;;;7.47;;
74530;SDS011;63010;55.668;37.878;2022-12-07T04:39:54;16.70;;;7.40;;
74530;SDS011;63010;55.668;37.878;2022-12-07T04:42:20;16.50;;;8.45;;
74530;SDS011;63010;55.668;37.878;2022-12-07T04:44:45;16.83;;;8.00;;
74530;SDS011;63010;55.668;37.878;2022-12-07T04:47:11;16.10;;;7.32;;
74530;SDS011;63010;55.668;37.878;2022-12-07T04:49:37;20.95;;;8.18;;
74530;SDS011;63010;55.668;37.878;2022-12-07T04:52:02;14.52;;;7.55;;
74530;SDS011;63010;55.668;37.878;2022-12-07T04:54:28;13.90;;;6.70;;
74530;SDS011;63010;55.668;37.878;2022-12-07T04:56:53;13.77;;;7.22;;
74530;SDS011;63010;55.668;37.878;2022-12-07T04:59:19;13.85;;;7.13;;
74530;SDS011;63010;55.668;37.878;2022-12-07T05:01:45;15.27;;;7.57;;
74530;SDS011;63010;55.668;37.878;2022-12-07T05:04:10;19.02;;;8.35;;
74530;SDS011;63010;55.668;37.878;2022-12-07T05:06:36;14.40;;;7.03;;
74530;SDS011;63010;55.668;37.878;2022-12-07T05:09:02;17.38;;;7.40;;
74530;SDS011;63010;55.668;37.878;2022-12-07T05:11:28;16.35;;;7.70;;
74530;SDS011;63010;55.668;37.878;2022-12-07T05:14:03;16.63;;;7.72;;
74530;SDS011;63010;55.668;37.878;2022-12-07T05:16:30;19.75;;;8.70;;
74530;SDS011;63010;55.668;37.878;2022-12-07T05:18:57;20.80;;;9.73;;
74530;SDS011;63010;55.668;37.878;2022-12-07T05:21:23;19.30;;;10.20;;
74530;SDS011;63010;55.668;37.878;2022-12-07T05:23:48;23.75;;;9.75;;
74530;SDS011;63010;55.668;37.878;2022-12-07T05:26:14;27.15;;;10.90;;
74530;SDS011;63010;55.668;37.878;2022-12-07T05:28:40;19.83;;;9.60;;
74530;SDS011;63010;55.668;37.878;2022-12-07T05:31:06;24.30;;;10.48;;
74530;SDS011;63010;55.668;37.878;2022-12-07T05:33:31;22.55;;;10.25;;
74530;SDS011;63010;55.668;37.878;2022-12-07T05:35:57;16.05;;;8.35;;
74530;SDS011;63010;55.668;37.878;2022-12-07T05:38:23;21.23;;;10.43;;
74530;SDS011;63010;55.668;37.878;2022-12-07T05:40:50;24.45;;;10.05;;
74530;SDS011;63010;55.668;37.878;2022-12-07T05:43:15;21.90;;;10.55;;
74530;SDS011;63010;55.668;37.878;2022-12-07T05:45:41;26.85;;;11.57;;
74530;SDS011;63010;55.668;37.878;2022-12-07T05:48:06;28.00;;;11.73;;
74530;SDS011;63010;55.668;37.878;2022-12-07T05:50:32;26.80;;;11.75;;
74530;SDS011;63010;55.668;37.878;2022-12-07T05:52:58;26.63;;;11.13;;
74530;SDS011;63010;55.668;37.878;2022-12-07T05:55:23;27.75;;;12.25;;
74530;SDS011;63010;55.668;37.878;2022-12-07T05:57:49;26.20;;;11.98;;
74530;SDS011;63010;55.668;37.878;2022-12-07T06:00:33;27.40;;;11.70;;
74530;SDS011;63010;55.668;37.878;2022-12-07T06:02:59;25.88;;;11.88;;
74530;SDS011;63010;55.668;37.878;2022-12-07T06:05:24;28.20;;;12.57;;
74530;SDS011;63010;55.668;37.878;2022-12-07T06:07:50;28.30;;;12.23;;
74530;SDS011;63010;55.668;37.878;2022-12-07T06:10:15;24.75;;;11.50;;
74530;SDS011;63010;55.668;37.878;2022-12-07T06:12:41;21.35;;;9.93;;
74530;SDS011;63010;55.668;37.878;2022-12-07T06:15:08;23.95;;;11.23;;
74530;SDS011;63010;55.668;37.878;2022-12-07T06:17:35;20.67;;;10.82;;
74530;SDS011;63010;55.668;37.878;2022-12-07T06:20:01;26.75;;;11.05;;
74530;SDS011;63010;55.668;37.878;2022-12-07T06:22:28;24.02;;;10.60;;
74530;SDS011;63010;55.668;37.878;2022-12-07T06:24:54;21.98;;;12.73;;
74530;SDS011;63010;55.668;37.878;2022-12-07T06:27:20;24.23;;;13.23;;
74530;SDS011;63010;55.668;37.878;2022-12-07T06:29:45;22.67;;;10.70;;
74530;SDS011;63010;55.668;37.878;2022-12-07T06:32:11;16.27;;;9.20;;
74530;SDS011;63010;55.668;37.878;2022-12-07T06:34:37;15.27;;;8.88;;
74530;SDS011;63010;55.668;37.878;2022-12-07T06:37:02;27.13;;;9.68;;
74530;SDS011;63010;55.668;37.878;2022-12-07T06:39:28;18.55;;;8.10;;
74530;SDS011;63010;55.668;37.878;2022-12-07T06:41:54;17.88;;;8.40;;
74530;SDS011;63010;55.668;37.878;2022-12-07T06:44:21;20.20;;;8.75;;
74530;SDS011;63010;55.668;37.878;2022-12-07T06:46:47;19.55;;;7.88;;
74530;SDS011;63010;55.668;37.878;2022-12-07T06:49:13;9.18;;;4.38;;
74530;SDS011;63010;55.668;37.878;2022-12-07T06:51:39;15.52;;;8.05;;
74530;SDS011;63010;55.668;37.878;2022-12-07T06:54:10;15.13;;;7.95;;
74530;SDS011;63010;55.668;37.878;2022-12-07T06:56:38;20.02;;;7.55;;
74530;SDS011;63010;55.668;37.878;2022-12-07T06:59:04;14.70;;;6.65;;
74530;SDS011;63010;55.668;37.878;2022-12-07T07:01:31;14.10;;;6.53;;
74530;SDS011;63010;55.668;37.878;2022-12-07T07:03:58;20.80;;;8.05;;
74530;SDS011;63010;55.668;37.878;2022-12-07T07:06:24;15.38;;;6.68;;
74530;SDS011;63010;55.668;37.878;2022-12-07T07:08:49;18.75;;;8.05;;
74530;SDS011;63010;55.668;37.878;2022-12-07T07:11:15;16.15;;;6.60;;
74530;SDS011;63010;55.668;37.878;2022-12-07T07:13:41;13.25;;;6.40;;
74530;SDS011;63010;55.668;37.878;2022-12-07T07:16:06;14.15;;;6.72;;
74530;SDS011;63010;55.668;37.878;2022-12-07T07:18:33;11.77;;;6.28;;
74530;SDS011;63010;55.668;37.878;2022-12-07T07:20:59;12.82;;;6.47;;
74530;SDS011;63010;55.668;37.878;2022-12-07T07:23:24;13.07;;;6.18;;
74530;SDS011;63010;55.668;37.878;2022-12-07T07:25:50;13.02;;;6.18;;
74530;SDS011;63010;55.668;37.878;2022-12-07T07:28:16;11.02;;;4.97;;
74530;SDS011;63010;55.668;37.878;2022-12-07T07:30:42;16.77;;;6.93;;
74530;SDS011;63010;55.668;37.878;2022-12-07T07:33:07;15.23;;;7.18;;
74530;SDS011;63010;55.668;37.878;2022-12-07T07:35:34;17.23;;;8.07;;
74530;SDS011;63010;55.668;37.878;2022-12-07T07:38:00;19.23;;;7.80;;
74530;SDS011;63010;55.668;37.878;2022-12-07T07:40:25;13.65;;;7.18;;
74530;SDS011;63010;55.668;37.878;2022-12-07T07:42:53;17.13;;;6.85;;
74530;SDS011;63010;55.668;37.878;2022-12-07T07:45:20;16.70;;;7.07;;
74530;SDS011;63010;55.668;37.878;2022-12-07T07:50:12;15.27;;;7.40;;
74530;SDS011;63010;55.668;37.878;2022-12-07T07:52:38;18.77;;;6.63;;
74530;SDS011;63010;55.668;37.878;2022-12-07T07:55:05;19.02;;;7.95;;
74530;SDS011;63010;55.668;37.878;2022-12-07T07:57:31;8.32;;;3.95;;
74530;SDS011;63010;55.668;37.878;2022-12-07T07:59:56;11.82;;;6.13;;
74530;SDS011;63010;55.668;37.878;2022-12-07T08:02:22;16.10;;;8.60;;
74530;SDS011;63010;55.668;37.878;2022-12-07T08:04:48;12.55;;;6.75;;
74530;SDS011;63010;55.668;37.878;2022-12-07T08:07:14;14.02;;;6.50;;
74530;SDS011;63010;55.668;37.878;2022-12-07T08:09:40;14.35;;;6.13;;
74530;SDS011;63010;55.668;37.878;2022-12-07T08:12:05;14.02;;;4.78;;
74530;SDS011;63010;55.668;37.878;2022-12-07T08:14:31;12.70;;;6.32;;
74530;SDS011;63010;55.668;37.878;2022-12-07T08:16:58;9.93;;;5.22;;
74530;SDS011;63010;55.668;37.878;2022-12-07T08:19:23;14.30;;;6.10;;
74530;SDS011;63010;55.668;37.878;2022-12-07T08:21:49;14.15;;;6.47;;
74530;SDS011;63010;55.668;37.878;2022-12-07T08:24:15;11.93;;;6.05;;
74530;SDS011;63010;55.668;37.878;2022-12-07T08:26:41;14.98;;;5.85;;
74530;SDS011;63010;55.668;37.878;2022-12-07T08:29:06;9.38;;;5.22;;
74530;SDS011;63010;55.668;37.878;2022-12-07T08:31:32;10.95;;;5.40;;
74530;SDS011;63010;55.668;37.878;2022-12-07T08:33:58;9.55;;;4.50;;
74530;SDS011;63010;55.668;37.878;2022-12-07T08:36:24;11.80;;;4.70;;
74530;SDS011;63010;55.668;37.878;2022-12-07T08:38:50;11.68;;;4.78;;
74530;SDS011;63010;55.668;37.878;2022-12-07T08:41:16;9.98;;;4.78;;
74530;SDS011;63010;55.668;37.878;2022-12-07T08:43:41;9.88;;;4.95;;
74530;SDS011;63010;55.668;37.878;2022-12-07T08:46:42;11.35;;;4.50;;
74530;SDS011;63010;55.668;37.878;2022-12-07T08:49:14;6.80;;;3.72;;
74530;SDS011;63010;55.668;37.878;2022-12-07T08:51:45;8.40;;;4.13;;
74530;SDS011;63010;55.668;37.878;2022-12-07T08:54:13;10.43;;;4.95;;
74530;SDS011;63010;55.668;37.878;2022-12-07T08:56:41;8.85;;;4.03;;
74530;SDS011;63010;55.668;37.878;2022-12-07T08:59:08;12.30;;;5.03;;
74530;SDS011;63010;55.668;37.878;2022-12-07T09:01:34;14.48;;;5.35;;
74530;SDS011;63010;55.668;37.878;2022-12-07T09:03:59;9.02;;;5.18;;
74530;SDS011;63010;55.668;37.878;2022-12-07T09:06:25;17.75;;;5.55;;
74530;SDS011;63010;55.668;37.878;2022-12-07T09:08:52;6.85;;;3.88;;
74530;SDS011;63010;55.668;37.878;2022-12-07T09:11:21;10.25;;;5.28;;
74530;SDS011;63010;55.668;37.878;2022-12-07T09:13:47;11.35;;;5.07;;
74530;SDS011;63010;55.668;37.878;2022-12-07T09:16:13;11.85;;;6.43;;
74530;SDS011;63010;55.668;37.878;2022-12-07T09:18:38;13.02;;;5.55;;
74530;SDS011;63010;55.668;37.878;2022-12-07T09:21:04;7.50;;;4.55;;
74530;SDS011;63010;55.668;37.878;2022-12-07T09:23:30;13.43;;;4.78;;
74530;SDS011;63010;55.668;37.878;2022-12-07T09:25:58;13.82;;;4.95;;
74530;SDS011;63010;55.668;37.878;2022-12-07T09:28:28;14.73;;;5.70;;
74530;SDS011;63010;55.668;37.878;2022-12-07T09:30:55;12.85;;;5.00;;
74530;SDS011;63010;55.668;37.878;2022-12-07T09:33:20;10.55;;;4.07;;
74530;SDS011;63010;55.668;37.878;2022-12-07T09:35:46;14.82;;;6.18;;
74530;SDS011;63010;55.668;37.878;2022-12-07T09:38:13;12.93;;;5.15;;
74530;SDS011;63010;55.668;37.878;2022-12-07T09:40:40;12.13;;;6.20;;
74530;SDS011;63010;55.668;37.878;2022-12-07T09:43:16;10.27;;;5.57;;
74530;SDS011;63010;55.668;37.878;2022-12-07T09:45:44;12.48;;;5.95;;
74530;SDS011;63010;55.668;37.878;2022-12-07T09:48:19;19.05;;;7.00;;
74530;SDS011;63010;55.668;37.878;2022-12-07T09:50:48;18.27;;;6.57;;
74530;SDS011;63010;55.668;37.878;2022-12-07T09:55:55;16.65;;;5.53;;
74530;SDS011;63010;55.668;37.878;2022-12-07T09:58:22;13.85;;;6.43;;
74530;SDS011;63010;55.668;37.878;2022-12-07T10:00:59;14.80;;;5.78;;
74530;SDS011;63010;55.668;37.878;2022-12-07T10:03:27;13.45;;;6.20;;
74530;SDS011;63010;55.668;37.878;2022-12-07T10:05:54;14.75;;;6.25;;
74530;SDS011;63010;55.668;37.878;2022-12-07T10:08:20;23.77;;;7.25;;
74530;SDS011;63010;55.668;37.878;2022-12-07T10:10:48;18.13;;;7.05;;
74530;SDS011;63010;55.668;37.878;2022-12-07T10:13:19;14.63;;;5.93;;
74530;SDS011;63010;55.668;37.878;2022-12-07T10:21:10;10.93;;;5.80;;
74530;SDS011;63010;55.668;37.878;2022-12-07T10:26:30;18.27;;;6.32;;
74530;SDS011;63010;55.668;37.878;2022-12-07T10:29:13;11.73;;;4.95;;
74530;SDS011;63010;55.668;37.878;2022-12-07T10:31:51;17.40;;;5.60;;
74530;SDS011;63010;55.668;37.878;2022-12-07T10:34:25;11.65;;;6.10;;
74530;SDS011;63010;55.668;37.878;2022-12-07T10:39:39;12.88;;;5.35;;
74530;SDS011;63010;55.668;37.878;2022-12-07T10:42:29;7.28;;;4.38;;
74530;SDS011;63010;55.668;37.878;2022-12-07T10:45:12;12.82;;;5.80;;
74530;SDS011;63010;55.668;37.878;2022-12-07T10:59:25;13.70;;;5.38;;
74530;SDS011;63010;55.668;37.878;2022-12-07T11:05:01;13.77;;;5.13;;
74530;SDS011;63010;55.668;37.878;2022-12-07T11:16:15;10.50;;;5.55;;
74530;SDS011;63010;55.668;37.878;2022-12-07T11:24:07;10.95;;;5.70;;
74530;SDS011;63010;55.668;37.878;2022-12-07T11:27:04;9.40;;;5.07;;
74530;SDS011;63010;55.668;37.878;2022-12-07T11:37:48;18.65;;;6.55;;
74530;SDS011;63010;55.668;37.878;2022-12-07T11:42:44;12.10;;;5.90;;
74530;SDS011;63010;55.668;37.878;2022-12-07T11:45:21;12.15;;;5.95;;
74530;SDS011;63010;55.668;37.878;2022-12-07T11:47:55;14.93;;;5.93;;
74530;SDS011;63010;55.668;37.878;2022-12-07T11:50:27;13.70;;;6.32;;
74530;SDS011;63010;55.668;37.878;2022-12-07T11:53:01;12.65;;;6.07;;
74530;SDS011;63010;55.668;37.878;2022-12-07T12:06:40;14.95;;;6.40;;
74530;SDS011;63010;55.668;37.878;2022-12-07T12:25:56;15.20;;;7.05;;
74530;SDS011;63010;55.668;37.878;2022-12-07T12:33:49;13.48;;;7.10;;
74530;SDS011;63010;55.668;37.878;2022-12-07T12:51:53;14.52;;;6.70;;
74530;SDS011;63010;55.668;37.878;2022-12-07T12:57:18;14.10;;;6.85;;
74530;SDS011;63010;55.668;37.878;2022-12-07T13:02:29;14.20;;;6.20;;
74530;SDS011;63010;55.668;37.878;2022-12-07T13:23:21;15.80;;;7.70;;
74530;SDS011;63010;55.668;37.878;2022-12-07T13:25:59;11.25;;;5.20;;
74530;SDS011;63010;55.668;37.878;2022-12-07T13:28:36;14.90;;;6.53;;
74530;SDS011;63010;55.668;37.878;2022-12-07T13:33:49;23.88;;;9.23;;
74530;SDS011;63010;55.668;37.878;2022-12-07T13:36:22;18.67;;;8.20;;
74530;SDS011;63010;55.668;37.878;2022-12-07T13:38:58;9.55;;;4.05;;
74530;SDS011;63010;55.668;37.878;2022-12-07T13:41:28;19.38;;;6.45;;
74530;SDS011;63010;55.668;37.878;2022-12-07T13:49:30;15.07;;;7.43;;
74530;SDS011;63010;55.668;37.878;2022-12-07T13:52:14;15.15;;;7.38;;
74530;SDS011;63010;55.668;37.878;2022-12-07T13:54:49;16.38;;;7.20;;
74530;SDS011;63010;55.668;37.878;2022-12-07T13:57:22;14.10;;;5.57;;
74530;SDS011;63010;55.668;37.878;2022-12-07T13:59:49;22.33;;;8.48;;
74530;SDS011;63010;55.668;37.878;2022-12-07T14:02:19;14.65;;;7.28;;
74530;SDS011;63010;55.668;37.878;2022-12-07T14:04:50;17.75;;;7.45;;
74530;SDS011;63010;55.668;37.878;2022-12-07T14:09:53;18.25;;;7.43;;
74530;SDS011;63010;55.668;37.878;2022-12-07T14:12:26;15.73;;;5.68;;
74530;SDS011;63010;55.668;37.878;2022-12-07T14:14:53;15.07;;;8.25;;
74530;SDS011;63010;55.668;37.878;2022-12-07T14:17:21;11.98;;;6.25;;
74530;SDS011;63010;55.668;37.878;2022-12-07T14:19:56;19.55;;;6.65;;
74530;SDS011;63010;55.668;37.878;2022-12-07T14:22:37;14.68;;;6.72;;
74530;SDS011;63010;55.668;37.878;2022-12-07T14:25:43;17.45;;;6.55;;
74530;SDS011;63010;55.668;37.878;2022-12-07T14:27:58;13.30;;;7.13;;
74530;SDS011;63010;55.668;37.878;2022-12-07T14:30:32;17.98;;;6.47;;
74530;SDS011;63010;55.668;37.878;2022-12-07T14:33:00;13.25;;;5.60;;
74530;SDS011;63010;55.668;37.878;2022-12-07T14:35:27;16.80;;;7.95;;
74530;SDS011;63010;55.668;37.878;2022-12-07T14:37:52;19.00;;;8.20;;
74530;SDS011;63010;55.668;37.878;2022-12-07T14:40:22;13.43;;;5.60;;
74530;SDS011;63010;55.668;37.878;2022-12-07T14:42:56;12.75;;;5.70;;
74530;SDS011;63010;55.668;37.878;2022-12-07T14:45:26;14.90;;;6.03;;
74530;SDS011;63010;55.668;37.878;2022-12-07T14:47:51;15.95;;;6.13;;
74530;SDS011;63010;55.668;37.878;2022-12-07T14:50:18;10.07;;;5.03;;
74530;SDS011;63010;55.668;37.878;2022-12-07T14:52:54;12.00;;;5.55;;
74530;SDS011;63010;55.668;37.878;2022-12-07T14:55:28;10.48;;;5.45;;
74530;SDS011;63010;55.668;37.878;2022-12-07T14:57:56;18.60;;;6.93;;
74530;SDS011;63010;55.668;37.878;2022-12-07T15:00:23;15.13;;;6.63;;
74530;SDS011;63010;55.668;37.878;2022-12-07T15:02:51;15.98;;;6.35;;
74530;SDS011;63010;55.668;37.878;2022-12-07T15:05:17;19.90;;;7.25;;
74530;SDS011;63010;55.668;37.878;2022-12-07T15:07:43;12.82;;;5.35;;
74530;SDS011;63010;55.668;37.878;2022-12-07T15:10:21;11.07;;;5.32;;
74530;SDS011;63010;55.668;37.878;2022-12-07T15:13:04;14.35;;;5.97;;
74530;SDS011;63010;55.668;37.878;2022-12-07T15:15:49;16.35;;;5.55;;
74530;SDS011;63010;55.668;37.878;2022-12-07T15:18:16;12.18;;;5.60;;
74530;SDS011;63010;55.668;37.878;2022-12-07T15:20:42;9.95;;;4.78;;
74530;SDS011;63010;55.668;37.878;2022-12-07T15:23:08;12.25;;;5.78;;
74530;SDS011;63010;55.668;37.878;2022-12-07T15:25:35;12.07;;;6.22;;
74530;SDS011;63010;55.668;37.878;2022-12-07T15:28:01;14.73;;;6.22;;
74530;SDS011;63010;55.668;37.878;2022-12-07T15:30:26;15.32;;;6.28;;
74530;SDS011;63010;55.668;37.878;2022-12-07T15:32:52;13.75;;;6.07;;
74530;SDS011;63010;55.668;37.878;2022-12-07T15:35:18;15.88;;;6.25;;
74530;SDS011;63010;55.668;37.878;2022-12-07T15:37:44;16.27;;;7.00;;
74530;SDS011;63010;55.668;37.878;2022-12-07T15:40:10;14.13;;;5.10;;
74530;SDS011;63010;55.668;37.878;2022-12-07T15:42:38;12.25;;;5.75;;
74530;SDS011;63010;55.668;37.878;2022-12-07T15:45:04;11.27;;;5.05;;
74530;SDS011;63010;55.668;37.878;2022-12-07T15:47:33;12.93;;;5.97;;
74530;SDS011;63010;55.668;37.878;2022-12-07T15:50:01;13.18;;;5.72;;
74530;SDS011;63010;55.668;37.878;2022-12-07T15:52:29;12.20;;;5.43;;
74530;SDS011;63010;55.668;37.878;2022-12-07T15:54:54;12.48;;;5.38;;
74530;SDS011;63010;55.668;37.878;2022-12-07T15:57:20;11.10;;;4.65;;
74530;SDS011;63010;55.668;37.878;2022-12-07T15:59:45;11.00;;;4.82;;
74530;SDS011;63010;55.668;37.878;2022-12-07T16:02:12;14.00;;;6.93;;
74530;SDS011;63010;55.668;37.878;2022-12-07T16:04:38;14.02;;;5.95;;
74530;SDS011;63010;55.668;37.878;2022-12-07T16:07:03;9.20;;;5.10;;
74530;SDS011;63010;55.668;37.878;2022-12-07T16:09:29;10.57;;;5.72;;
74530;SDS011;63010;55.668;37.878;2022-12-07T16:11:54;16.58;;;6.40;;
74530;SDS011;63010;55.668;37.878;2022-12-07T16:14:20;20.17;;;5.80;;
74530;SDS011;63010;55.668;37.878;2022-12-07T16:16:47;10.15;;;5.60;;
74530;SDS011;63010;55.668;37.878;2022-12-07T16:19:13;16.38;;;5.00;;
74530;SDS011;63010;55.668;37.878;2022-12-07T16:21:38;13.30;;;4.63;;
74530;SDS011;63010;55.668;37.878;2022-12-07T16:24:04;11.43;;;5.95;;
74530;SDS011;63010;55.668;37.878;2022-12-07T16:26:30;10.90;;;5.90;;
74530;SDS011;63010;55.668;37.878;2022-12-07T16:28:56;13.65;;;6.25;;
74530;SDS011;63010;55.668;37.878;2022-12-07T16:31:23;12.48;;;5.10;;
74530;SDS011;63010;55.668;37.878;2022-12-07T16:33:52;9.90;;;5.53;;
74530;SDS011;63010;55.668;37.878;2022-12-07T16:36:19;11.90;;;5.65;;
74530;SDS011;63010;55.668;37.878;2022-12-07T16:38:47;16.70;;;7.28;;
74530;SDS011;63010;55.668;37.878;2022-12-07T16:41:13;16.08;;;5.97;;
74530;SDS011;63010;55.668;37.878;2022-12-07T16:43:38;14.15;;;5.55;;
74530;SDS011;63010;55.668;37.878;2022-12-07T16:46:04;11.45;;;4.95;;
74530;SDS011;63010;55.668;37.878;2022-12-07T16:48:30;15.13;;;6.78;;
74530;SDS011;63010;55.668;37.878;2022-12-07T16:50:56;12.65;;;7.88;;
74530;SDS011;63010;55.668;37.878;2022-12-07T16:53:22;12.70;;;4.78;;
74530;SDS011;63010;55.668;37.878;2022-12-07T16:55:49;10.27;;;4.70;;
74530;SDS011;63010;55.668;37.878;2022-12-07T16:58:15;13.23;;;5.03;;
74530;SDS011;63010;55.668;37.878;2022-12-07T17:00:42;12.35;;;5.50;;
74530;SDS011;63010;55.668;37.878;2022-12-07T17:03:09;14.10;;;5.63;;
74530;SDS011;63010;55.668;37.878;2022-12-07T17:05:39;11.52;;;4.88;;
74530;SDS011;63010;55.668;37.878;2022-12-07T17:08:07;11.07;;;4.78;;
74530;SDS011;63010;55.668;37.878;2022-12-07T17:10:34;11.50;;;5.00;;
74530;SDS011;63010;55.668;37.878;2022-12-07T17:13:02;12.27;;;4.78;;
74530;SDS011;63010;55.668;37.878;2022-12-07T17:15:54;11.98;;;5.13;;
74530;SDS011;63010;55.668;37.878;2022-12-07T17:18:31;14.70;;;5.03;;
74530;SDS011;63010;55.668;37.878;2022-12-07T17:21:04;11.75;;;5.00;;
74530;SDS011;63010;55.668;37.878;2022-12-07T17:23:31;11.98;;;5.40;;
74530;SDS011;63010;55.668;37.878;2022-12-07T17:26:05;9.93;;;4.45;;
74530;SDS011;63010;55.668;37.878;2022-12-07T17:28:32;13.63;;;4.68;;
74530;SDS011;63010;55.668;37.878;2022-12-07T17:30:59;8.57;;;4.32;;
74530;SDS011;63010;55.668;37.878;2022-12-07T17:33:25;12.18;;;4.80;;